Time;durP1;ratioP1;P1;durP2;ratioP2;P2;SDS_P1;SDS_P2;PMS_P1;PMS_P2;Temp;Humidity;BMP_temperature;BMP_pressure;BME280_temperature;BME280_humidity;BME280_pressure;Samples;Min_cycle;Max_cycle;Signal;HPM_P1;HPM_P2
2021/01/04 00:03:50;;;;;;;;;;;;;;;2.56;83.68;98387.56;250366;1148;22966;-81
2021/01/04 00:09:11;;;;;;;;;;;;;;;2.55;84.00;98385.17;250411;1153;21563;-82
2021/01/04 00:14:28;;;;;;;112.47;54.00;;;;;;;2.48;84.11;98380.05;250312;1147;21709;-79
2021/01/04 00:19:55;;;;;;;146.97;62.53;;;;;;;2.39;83.78;98373.58;250308;1147;23017;-78
2021/01/04 00:25:24;;;;;;;139.10;63.45;;;;;;;2.42;84.15;98378.40;250358;1148;23629;-78
2021/01/04 00:30:31;;;;;;;126.57;58.00;;;;;;;2.42;84.03;98373.11;250480;1148;22979;-79
2021/01/04 00:35:33;;;;;;;132.90;62.17;;;;;;;2.42;83.90;98381.05;250537;1148;25871;-78
2021/01/04 00:40:54;;;;;;;126.65;61.05;;;;;;;2.45;83.95;98385.84;250201;1148;25957;-79
2021/01/04 00:45:56;;;;;;;102.00;46.10;;;;;;;2.48;84.02;98393.27;250659;1148;22903;-78
2021/01/04 00:51:01;;;;;;;120.13;54.03;;;;;;;2.54;84.20;98404.72;250460;1148;23001;-80
2021/01/04 00:56:27;;;;;;;124.60;58.47;;;;;;;2.62;83.90;98408.80;250471;1147;24376;-79
2021/01/04 01:01:38;;;;;;;110.13;54.23;;;;;;;2.67;84.30;98403.55;250463;1152;22958;-79
2021/01/04 01:06:49;;;;;;;114.83;52.73;;;;;;;2.68;84.08;98395.37;250124;1148;26079;-79
2021/01/04 01:12:14;;;;;;;119.40;55.33;;;;;;;2.75;84.16;98403.13;250508;1153;23105;-79
2021/01/04 01:17:35;;;;;;;111.00;53.25;;;;;;;2.76;83.81;98395.98;250279;1148;23116;-78
2021/01/04 01:22:40;;;;;;;98.10;46.33;;;;;;;2.77;83.81;98392.30;250374;1153;22963;-79
2021/01/04 01:28:22;;;;;;;97.67;48.53;;;;;;;2.72;83.71;98385.89;250111;1148;22949;-78
2021/01/04 01:33:46;;;;;;;113.85;54.10;;;;;;;2.68;83.71;98389.28;250300;1148;22985;-78
2021/01/04 01:39:00;;;;;;;110.73;55.93;;;;;;;2.64;84.08;98388.18;250511;1148;23360;-78
2021/01/04 01:44:13;;;;;;;110.80;54.20;;;;;;;2.65;83.88;98390.58;250104;1148;23122;-78
2021/01/04 01:49:39;;;;;;;112.43;51.87;;;;;;;2.68;84.04;98387.44;249925;1155;22952;-79
2021/01/04 01:54:56;;;;;;;110.27;54.30;;;;;;;2.73;84.24;98378.78;250335;1148;22949;-76
2021/01/04 02:00:21;;;;;;;115.33;57.33;;;;;;;2.77;83.97;98384.36;250311;1148;23028;-77
2021/01/04 02:05:44;;;;;;;124.60;56.80;;;;;;;2.77;84.02;98382.53;250155;1148;22899;-78
2021/01/04 02:10:52;;;;;;;108.30;50.73;;;;;;;2.76;84.05;98380.92;250289;1155;22976;-79
2021/01/04 02:16:01;;;;;;;114.07;56.30;;;;;;;2.66;83.60;98394.83;250465;1147;22952;-79
2021/01/04 02:21:25;;;;;;;122.07;56.97;;;;;;;2.66;83.78;98389.53;250437;1149;23136;-78
2021/01/04 02:26:27;;;;;;;118.50;56.47;;;;;;;2.67;84.04;98388.50;250412;1148;23004;-79
2021/01/04 02:31:31;;;;;;;115.15;55.70;;;;;;;2.70;84.32;98392.47;250458;1148;23004;-79
2021/01/04 02:36:39;;;;;;;117.90;57.55;;;;;;;2.69;83.76;98390.89;250311;1147;23099;-79
2021/01/04 02:42:03;;;;;;;118.57;56.90;;;;;;;2.70;83.74;98389.83;249976;1148;22952;-78
2021/01/04 02:47:32;;;;;;;110.37;54.23;;;;;;;2.69;83.73;98391.69;250494;1147;22980;-78
2021/01/04 02:53:11;;;;;;;107.80;54.53;;;;;;;2.64;84.07;98381.03;250207;1150;24372;-78
2021/01/04 02:58:23;;;;;;;;;;;;;;;2.60;84.41;98387.07;250505;1148;22974;-78
2021/01/04 03:03:27;;;;;;;98.75;48.70;;;;;;;2.49;84.21;98394.88;250452;1147;21559;-76
2021/01/04 03:08:30;;;;;;;106.85;52.50;;;;;;;2.47;84.47;98391.66;250091;1148;22938;-77
2021/01/04 03:13:52;;;;;;;107.00;54.50;;;;;;;2.46;84.25;98389.27;249847;1148;22953;-78
2021/01/04 03:19:06;;;;;;;97.97;50.43;;;;;;;2.48;84.29;98393.27;250292;1148;24597;-79
2021/01/04 03:24:11;;;;;;;95.70;48.47;;;;;;;2.46;84.29;98395.34;250087;1153;22970;-78
2021/01/04 03:29:13;;;;;;;109.47;56.30;;;;;;;2.47;84.24;98393.52;250268;1148;22960;-78
2021/01/04 03:34:16;;;;;;;112.90;55.43;;;;;;;2.53;84.78;98405.75;250322;1153;22942;-76
2021/01/04 03:39:18;;;;;;;106.70;53.45;;;;;;;2.62;84.30;98414.09;250016;1151;23113;-79
2021/01/04 03:44:20;;;;;;;89.10;46.60;;;;;;;2.57;84.07;98414.80;250354;1148;23052;-78
2021/01/04 03:49:23;;;;;;;119.90;56.33;;;;;;;2.54;84.42;98413.44;250438;1147;22939;-79
2021/01/04 03:54:25;;;;;;;102.97;51.73;;;;;;;2.59;84.26;98411.91;250659;1147;22942;-79
2021/01/04 03:59:27;;;;;;;103.10;50.63;;;;;;;2.67;84.69;98416.77;250142;1149;23058;-79
2021/01/04 04:04:30;;;;;;;95.37;49.50;;;;;;;2.70;84.59;98419.74;250560;1148;23087;-78
2021/01/04 04:09:32;;;;;;;94.13;47.87;;;;;;;2.71;84.35;98417.89;250030;1151;22961;-79
2021/01/04 04:14:34;;;;;;;112.15;54.95;;;;;;;2.71;84.31;98416.06;250362;1153;23163;-79
2021/01/04 04:19:36;;;;;;;103.10;52.03;;;;;;;2.72;84.41;98416.84;250482;1152;24424;-79
2021/01/04 04:24:40;;;;;;;101.13;49.53;;;;;;;2.71;84.35;98417.89;250452;1149;23289;-79
2021/01/04 04:29:46;;;;;;;125.73;58.67;;;;;;;2.71;84.38;98410.77;250325;1147;26427;-78
2021/01/04 04:34:49;;;;;;;115.47;56.90;;;;;;;2.70;84.76;98408.34;250585;1148;22952;-78
2021/01/04 04:39:51;;;;;;;99.57;49.60;;;;;;;2.69;84.67;98401.47;249958;1151;23144;-78
2021/01/04 04:45:03;;;;;;;124.65;60.65;;;;;;;2.68;84.89;98403.30;250351;1147;22967;-78
2021/01/04 04:50:42;;;;;;;119.93;60.23;;;;;;;2.64;84.46;98404.05;250068;1148;22945;-80
2021/01/04 04:56:15;;;;;;;112.43;55.97;;;;;;;2.54;84.49;98410.80;250368;1148;22957;-79
2021/01/04 05:01:43;;;;;;;97.43;49.83;;;;;;;2.51;84.70;98415.78;250022;1148;22974;-78
2021/01/04 05:07:02;;;;;;;115.33;54.30;;;;;;;2.46;85.14;98429.72;249861;1147;22953;-77
2021/01/04 05:12:07;;;;;;;121.13;58.40;;;;;;;2.42;85.42;98433.92;250031;1150;22946;-78
2021/01/04 05:17:19;;;;;;;79.20;39.35;;;;;;;2.46;85.60;98434.22;249880;1155;23051;-76
2021/01/04 05:22:46;;;;;;;100.50;50.00;;;;;;;2.51;85.76;98443.02;249802;1148;23039;-78
2021/01/04 05:28:26;;;;;;;87.47;46.50;;;;;;;2.55;85.93;98438.05;250227;1147;22929;-78
2021/01/04 05:33:55;;;;;;;94.55;48.35;;;;;;;2.62;85.79;98436.03;250041;1153;22976;-78
2021/01/04 05:39:12;;;;;;;100.45;50.80;;;;;;;2.62;86.11;98438.67;250312;1152;23015;-76
2021/01/04 05:44:52;;;;;;;85.57;45.03;;;;;;;2.60;86.06;98434.67;249991;1148;23300;-76
2021/01/04 05:50:05;;;;;;;111.57;53.93;;;;;;;2.59;86.29;98443.64;250154;1148;22967;-78
2021/01/04 05:55:12;;;;;;;122.55;60.55;;;;;;;2.55;86.15;98425.63;250363;1148;23256;-77
2021/01/04 06:00:33;;;;;;;117.75;57.30;;;;;;;2.57;86.21;98425.38;250272;1148;22942;-76
2021/01/04 06:05:37;;;;;;;122.27;60.13;;;;;;;2.62;86.74;98428.09;250146;1148;22961;-78
2021/01/04 06:10:39;;;;;;;124.83;63.17;;;;;;;2.66;86.44;98417.81;250021;1147;22994;-78
2021/01/04 06:15:44;;;;;;;117.77;58.17;;;;;;;2.66;86.55;98417.81;250155;1148;22973;-78
2021/01/04 06:20:52;;;;;;;109.03;56.30;;;;;;;2.67;87.04;98412.30;249842;1148;22985;-76
2021/01/04 06:25:57;;;;;;;107.53;53.07;;;;;;;2.66;86.82;98408.05;250052;1148;22988;-77
2021/01/04 06:31:04;;;;;;;107.07;54.23;;;;;;;2.65;86.94;98408.30;250061;1148;23021;-76
2021/01/04 06:36:14;;;;;;;102.00;53.23;;;;;;;2.61;86.59;98409.83;250189;1148;22955;-77
2021/01/04 06:41:28;;;;;;;;;;;;;;;2.51;86.82;98413.94;249766;1148;22951;-76
2021/01/04 06:46:44;;;;;;;82.77;42.47;;;;;;;2.37;86.43;98405.55;250692;1147;21562;-80
2021/01/04 06:52:16;;;;;;;93.93;47.70;;;;;;;2.29;86.87;98416.53;250535;1148;22991;-76
2021/01/04 06:57:40;;;;;;;114.07;55.40;;;;;;;2.21;87.03;98423.05;250563;1147;22959;-79
2021/01/04 07:03:28;;;;;;;104.27;53.07;;;;;;;2.16;86.65;98430.89;251385;1146;22975;-79
2021/01/04 07:08:49;;;;;;;107.00;52.93;;;;;;;2.19;86.68;98430.40;251290;1147;23300;-78
2021/01/04 07:14:26;;;;;;;114.47;55.30;;;;;;;2.32;87.48;98437.22;251097;1147;22961;-77
2021/01/04 07:20:06;;;;;;;110.33;56.43;;;;;;;2.43;87.15;98440.78;250556;1147;22909;-78
2021/01/04 07:25:20;;;;;;;116.10;57.45;;;;;;;2.54;87.57;98439.88;251643;1147;26401;-79
2021/01/04 07:30:38;;;;;;;122.73;62.57;;;;;;;2.66;87.27;98438.97;251659;1145;23132;-78
2021/01/04 07:36:05;;;;;;;135.63;69.37;;;;;;;2.79;87.96;98451.85;251376;1146;23454;-78
2021/01/04 07:41:35;;;;;;;164.10;78.80;;;;;;;2.85;87.57;98458.80;251647;1145;22960;-79
2021/01/04 07:46:37;;;;;;;;;;;;;;;2.88;87.24;98476.84;251690;1147;23657;-77
2021/01/04 07:52:12;;;;;;;115.27;56.97;;;;;;;2.86;86.98;98486.86;251473;1147;21566;-76
2021/01/04 07:57:38;;;;;;;110.00;54.20;;;;;;;2.94;87.18;98487.48;250996;1147;22944;-76
2021/01/04 08:02:42;;;;;;;116.13;59.97;;;;;;;3.01;87.20;98504.80;250561;1147;22980;-76
2021/01/04 08:07:59;;;;;;;113.73;60.90;;;;;;;3.05;87.13;98505.08;250533;1147;22956;-76
2021/01/04 08:13:15;;;;;;;139.00;76.15;;;;;;;3.12;87.40;98508.38;250725;1147;22957;-75
2021/01/04 08:18:20;;;;;;;131.57;65.73;;;;;;;3.16;87.10;98506.84;250608;1146;24517;-74
2021/01/04 08:23:38;;;;;;;111.80;59.17;;;;;;;3.27;87.52;98504.30;250791;1147;23025;-78
2021/01/04 08:28:47;;;;;;;112.17;58.23;;;;;;;3.38;87.56;98500.72;250716;1147;22983;-79
2021/01/04 08:33:54;;;;;;;104.90;54.10;;;;;;;3.50;87.53;98506.69;250712;1147;22987;-78
2021/01/04 08:39:08;;;;;;;109.83;59.43;;;;;;;3.63;87.62;98502.06;250681;1147;22904;-73
2021/01/04 08:44:19;;;;;;;102.70;57.87;;;;;;;3.82;87.53;98502.49;251356;1148;23106;-76
2021/01/04 08:49:43;;;;;;;95.53;50.53;;;;;;;3.96;86.67;98508.19;250681;1147;22970;-77
2021/01/04 08:54:58;;;;;;;99.65;54.53;;;;;;;4.05;87.00;98515.44;250804;1147;24351;-76
2021/01/04 09:00:15;;;;;;;92.17;47.13;;;;;;;4.12;86.90;98512.58;251066;1147;22939;-77
2021/01/04 09:05:29;;;;;;;66.30;38.83;;;;;;;4.21;86.95;98508.43;250644;1147;23116;-76
2021/01/04 09:10:43;;;;;;;80.37;42.57;;;;;;;4.33;87.05;98513.55;250618;1147;23053;-74
2021/01/04 09:15:45;;;;;;;62.33;35.67;;;;;;;4.44;86.43;98506.47;250627;1147;22938;-75
2021/01/04 09:21:00;;;;;;;71.67;40.33;;;;;;;4.53;86.44;98501.48;252590;1148;22917;-77
2021/01/04 09:26:09;;;;;;;68.50;39.15;;;;;;;4.63;86.43;98486.44;250671;1147;22960;-77
2021/01/04 09:31:16;;;;;;;72.40;40.50;;;;;;;4.83;86.27;98487.61;250340;1147;22938;-77
2021/01/04 09:36:22;;;;;;;63.77;36.53;;;;;;;5.21;87.29;98482.21;250258;1147;23103;-75
2021/01/04 09:41:24;;;;;;;48.20;26.50;;;;;;;5.65;86.56;98482.60;251100;1147;22905;-75
2021/01/04 09:46:37;;;;;;;58.47;33.73;;;;;;;5.95;86.14;98482.91;250887;1147;26372;-77
2021/01/04 09:52:12;;;;;;;53.10;29.90;;;;;;;6.15;85.69;98477.61;250521;1145;22984;-77
2021/01/04 09:57:23;;;;;;;63.67;36.63;;;;;;;6.28;85.39;98488.78;250367;1147;22988;-76
2021/01/04 10:02:34;;;;;;;58.97;32.63;;;;;;;6.33;84.87;98478.94;250728;1147;22945;-76
2021/01/04 10:07:39;;;;;;;65.90;36.55;;;;;;;6.40;85.01;98478.67;250967;1148;23411;-76
2021/01/04 10:12:41;;;;;;;74.15;41.15;;;;;;;6.49;85.10;98473.59;250893;1148;22905;-78
2021/01/04 10:17:47;;;;;;;79.13;43.53;;;;;;;6.45;83.84;98469.87;250986;1148;23018;-77
2021/01/04 10:22:52;;;;;;;57.40;34.10;;;;;;;6.45;84.21;98464.55;250562;1147;23091;-76
2021/01/04 10:27:58;;;;;;;49.63;30.40;;;;;;;6.55;84.70;98467.22;250719;1147;24475;-77
2021/01/04 10:33:07;;;;;;;52.27;29.77;;;;;;;6.59;84.28;98460.29;251039;1147;23110;-76
2021/01/04 10:38:18;;;;;;;58.90;34.50;;;;;;;6.54;83.65;98459.50;250268;1148;22963;-78
2021/01/04 10:43:24;;;;;;;58.10;33.27;;;;;;;6.50;83.47;98452.03;250357;1147;22973;-77
2021/01/04 10:48:57;;;;;;;48.73;32.10;;;;;;;6.40;83.76;98459.26;250690;1147;22971;-75
2021/01/04 10:53:59;;;;;;;58.77;33.50;;;;;;;6.33;83.79;98462.97;250915;1147;24569;-74
2021/01/04 10:59:27;;;;;;;61.10;36.00;;;;;;;6.30;83.30;98457.41;251787;1147;22910;-76
2021/01/04 11:04:30;;;;;;;52.20;31.13;;;;;;;6.38;83.47;98453.39;250895;1147;22948;-76
2021/01/04 11:09:40;;;;;;;52.93;30.83;;;;;;;6.50;84.17;98446.71;250946;1147;24596;-77
2021/01/04 11:15:00;;;;;;;56.97;34.47;;;;;;;6.69;84.01;98454.14;251604;1147;22939;-76
2021/01/04 11:20:16;;;;;;;50.60;30.77;;;;;;;6.78;83.24;98449.84;253255;1147;23077;-75
2021/01/04 11:25:18;;;;;;;48.40;27.87;;;;;;;6.79;83.62;98445.33;251046;1147;22920;-76
2021/01/04 11:30:23;;;;;;;47.10;29.15;;;;;;;6.80;83.67;98449.56;251134;1148;22942;-77
2021/01/04 11:35:26;;;;;;;50.47;30.27;;;;;;;6.91;83.18;98437.84;257341;1146;22840;-76
2021/01/04 11:40:29;;;;;;;47.60;27.77;;;;;;;7.05;82.66;98423.92;252566;1147;22937;-75
2021/01/04 11:45:31;;;;;;;47.23;28.33;;;;;;;7.22;82.62;98439.55;251021;1148;22971;-76
2021/01/04 11:50:33;;;;;;;35.87;22.47;;;;;;;7.33;82.84;98425.92;250730;1147;23072;-78
2021/01/04 11:55:36;;;;;;;36.87;21.27;;;;;;;7.35;82.08;98429.09;250910;1147;23167;-75
2021/01/04 12:00:39;;;;;;;33.07;20.83;;;;;;;7.41;81.76;98423.74;250407;1147;22974;-77
2021/01/04 12:05:41;;;;;;;37.77;20.83;;;;;;;7.46;81.49;98421.05;251079;1147;22964;-71
2021/01/04 12:10:43;;;;;;;31.77;19.60;;;;;;;7.53;81.98;98424.20;251008;1147;23099;-77
2021/01/04 12:15:45;;;;;;;26.17;15.33;;;;;;;7.59;81.22;98416.97;250385;1147;23286;-78
2021/01/04 12:20:48;;;;;;;32.80;19.30;;;;;;;7.55;80.48;98403.38;250633;1147;22911;-78
2021/01/04 12:25:50;;;;;;;31.80;19.03;;;;;;;7.51;80.81;98413.00;250488;1147;23399;-78
2021/01/04 12:30:52;;;;;;;30.63;19.10;;;;;;;7.52;80.68;98411.94;250792;1146;22898;-76
2021/01/04 12:35:54;;;;;;;31.23;18.40;;;;;;;7.54;80.67;98412.45;251196;1147;22880;-78
2021/01/04 12:40:56;;;;;;;29.60;19.63;;;;;;;7.53;80.45;98413.54;250432;1148;26500;-78
2021/01/04 12:45:58;;;;;;;31.40;20.20;;;;;;;7.50;80.74;98414.88;250770;1145;22911;-78
2021/01/04 12:51:01;;;;;;;28.87;19.07;;;;;;;7.34;80.12;98416.86;250686;1147;22960;-76
2021/01/04 12:56:07;;;;;;;30.40;19.70;;;;;;;7.19;79.84;98416.91;250106;1147;23017;-78
2021/01/04 13:01:15;;;;;;;38.43;19.97;;;;;;;7.06;80.48;98409.55;250422;1147;23032;-78
2021/01/04 13:06:21;;;;;;;35.27;21.60;;;;;;;6.99;80.69;98397.30;250753;1147;22923;-78
2021/01/04 13:11:23;;;;;;;31.80;20.37;;;;;;;7.03;81.17;98386.91;250415;1147;22940;-78
2021/01/04 13:16:34;;;;;;;35.30;20.53;;;;;;;6.99;80.54;98393.85;250394;1147;22950;-78
2021/01/04 13:21:37;;;;;;;34.40;20.15;;;;;;;6.98;80.47;98392.25;250573;1147;22936;-79
2021/01/04 13:26:43;;;;;;;37.13;21.90;;;;;;;7.02;80.68;98393.30;250584;1147;26446;-79
2021/01/04 13:31:45;;;;;;;41.13;22.00;;;;;;;7.06;81.12;98393.56;250496;1147;22953;-75
2021/01/04 13:36:48;;;;;;;89.55;48.55;;;;;;;7.00;81.07;98396.23;250457;1147;22952;-78
2021/01/04 13:41:52;;;;;;;103.90;58.17;;;;;;;6.90;81.26;98393.63;250368;1147;23106;-82
2021/01/04 13:47:09;;;;;;;89.73;51.90;;;;;;;6.81;81.46;98397.92;250515;1148;23088;-74
2021/01/04 13:52:13;;;;;;;99.60;57.15;;;;;;;6.67;81.59;98387.06;251830;1147;22964;-77
2021/01/04 13:57:17;;;;;;;99.35;56.50;;;;;;;6.51;81.68;98388.98;251422;1148;23420;-74
2021/01/04 14:02:19;;;;;;;94.13;55.87;;;;;;;6.36;81.85;98397.01;250368;1148;22943;-77
2021/01/04 14:07:21;;;;;;;91.27;55.00;;;;;;;6.23;82.13;98396.49;250489;1148;22936;-79
2021/01/04 14:12:23;;;;;;;87.45;52.00;;;;;;;6.10;82.04;98389.05;251523;1147;22939;-78
2021/01/04 14:17:27;;;;;;;95.47;54.30;;;;;;;5.96;82.59;98389.59;251619;1147;22989;-78
2021/01/04 14:22:29;;;;;;;92.10;51.10;;;;;;;5.83;82.26;98395.42;251785;1146;22963;-79
2021/01/04 14:27:33;;;;;;;82.90;49.35;;;;;;;5.70;83.29;98393.31;252289;1147;22924;-76
2021/01/04 14:32:36;;;;;;;88.10;52.33;;;;;;;5.55;82.88;98394.09;251131;1147;22939;-74
2021/01/04 14:37:38;;;;;;;100.60;54.13;;;;;;;5.44;83.51;98393.27;251614;1147;23018;-79
2021/01/04 14:42:41;;;;;;;96.90;55.17;;;;;;;5.28;83.45;98393.25;251772;1148;22942;-78
2021/01/04 14:47:43;;;;;;;98.20;56.33;;;;;;;5.13;83.64;98388.72;252018;1147;22936;-77
2021/01/04 14:52:46;;;;;;;99.25;54.90;;;;;;;5.07;84.09;98399.58;250998;1147;22918;-77
2021/01/04 14:57:48;;;;;;;100.10;56.30;;;;;;;5.01;84.83;98389.98;251625;1148;22932;-79
2021/01/04 15:02:50;;;;;;;98.73;55.63;;;;;;;4.87;84.55;98385.19;250577;1148;23113;-79
2021/01/04 15:07:52;;;;;;;98.00;53.60;;;;;;;4.73;84.16;98384.86;251162;1147;22937;-76
2021/01/04 15:12:55;;;;;;;89.20;52.85;;;;;;;4.65;84.85;98395.18;251340;1146;22908;-76
2021/01/04 15:17:57;;;;;;;95.05;52.65;;;;;;;4.52;84.24;98383.98;253247;1146;22939;-79
2021/01/04 15:22:59;;;;;;;93.63;49.67;;;;;;;4.34;84.54;98385.20;250803;1147;22901;-78
2021/01/04 15:28:01;;;;;;;92.23;51.07;;;;;;;4.18;84.80;98383.51;250563;1146;22939;-79
2021/01/04 15:33:03;;;;;;;95.27;52.10;;;;;;;4.06;85.02;98378.41;250736;1147;22967;-78
2021/01/04 15:38:06;;;;;;;96.20;51.13;;;;;;;3.99;85.78;98388.41;251379;1147;22998;-78
2021/01/04 15:43:08;;;;;;;100.50;56.43;;;;;;;3.91;85.60;98381.74;250405;1146;22981;-76
2021/01/04 15:48:10;;;;;;;96.57;54.30;;;;;;;3.84;85.79;98387.25;250599;1147;22960;-80
2021/01/04 15:53:12;;;;;;;97.85;53.05;;;;;;;3.75;86.25;98386.93;250394;1146;23103;-77
2021/01/04 15:58:17;;;;;;;85.07;46.40;;;;;;;3.70;86.27;98380.80;250136;1147;23024;-79
2021/01/04 16:03:20;;;;;;;91.27;48.63;;;;;;;3.72;86.44;98397.22;250572;1147;22948;-79
2021/01/04 16:08:22;;;;;;;106.30;56.40;;;;;;;3.80;86.43;98407.36;250426;1147;23046;-80
2021/01/04 16:13:24;;;;;;;82.43;44.77;;;;;;;3.85;86.81;98414.57;249964;1147;22926;-79
2021/01/04 16:18:27;;;;;;;83.97;41.73;;;;;;;3.85;86.68;98419.88;250293;1153;22985;-77
2021/01/04 16:23:29;;;;;;;103.20;52.17;;;;;;;3.79;86.21;98418.22;250209;1148;22942;-83
2021/01/04 16:28:31;;;;;;;107.23;53.53;;;;;;;3.74;86.62;98414.47;249883;1155;23009;-78
2021/01/04 16:33:34;;;;;;;98.50;52.50;;;;;;;3.71;86.85;98412.33;250373;1148;23029;-79
2021/01/04 16:38:36;;;;;;;82.20;46.37;;;;;;;3.60;86.09;98410.64;250109;1153;22957;-80
2021/01/04 16:43:38;;;;;;;87.97;46.97;;;;;;;3.44;86.26;98407.03;250347;1148;23103;-79
2021/01/04 16:48:41;;;;;;;100.43;49.30;;;;;;;3.25;85.86;98396.80;250698;1152;22942;-79
2021/01/04 16:53:43;;;;;;;111.50;55.85;;;;;;;3.05;85.79;98394.75;250176;1148;23163;-77
2021/01/04 16:58:47;;;;;;;132.37;63.57;;;;;;;2.92;86.55;98395.12;250406;1148;22975;-80
2021/01/04 17:03:49;;;;;;;124.35;65.15;;;;;;;2.86;86.56;98396.12;250144;1148;23060;-79
2021/01/04 17:08:52;;;;;;;82.93;43.57;;;;;;;2.88;87.45;98400.13;250234;1148;22912;-78
2021/01/04 17:13:55;;;;;;;107.05;53.75;;;;;;;2.86;87.08;98404.05;250267;1148;22945;-79
2021/01/04 17:18:59;;;;;;;118.60;55.97;;;;;;;2.82;87.13;98409.03;250178;1149;22937;-78
2021/01/04 17:24:05;;;;;;;123.40;61.03;;;;;;;2.78;87.20;98413.20;250962;1148;23094;-77
2021/01/04 17:29:10;;;;;;;115.37;56.20;;;;;;;2.76;87.19;98419.78;250363;1148;23032;-78
2021/01/04 17:34:14;;;;;;;107.75;57.35;;;;;;;2.72;87.16;98414.20;250359;1148;22936;-79
2021/01/04 17:39:16;;;;;;;110.75;55.80;;;;;;;2.61;86.58;98410.63;250357;1152;22957;-78
2021/01/04 17:44:20;;;;;;;111.85;55.50;;;;;;;2.51;86.80;98408.64;250220;1147;22889;-78
2021/01/04 17:49:24;;;;;;;104.57;53.50;;;;;;;2.43;87.18;98414.34;250424;1147;22929;-79
2021/01/04 17:54:27;;;;;;;104.95;54.00;;;;;;;2.36;86.70;98414.52;249995;1148;23110;-79
2021/01/04 17:59:29;;;;;;;99.55;47.50;;;;;;;2.31;86.91;98424.22;250143;1153;23001;-75
2021/01/04 18:04:31;;;;;;;144.13;59.63;;;;;;;2.28;87.35;98437.92;250216;1147;22945;-79
2021/01/04 18:09:34;;;;;;;138.40;58.83;;;;;;;2.29;86.94;98431.60;249963;1151;22928;-79
2021/01/04 18:14:42;;;;;;;125.35;52.00;;;;;;;2.31;87.37;98448.01;250230;1147;23106;-80
2021/01/04 18:19:44;;;;;;;99.93;46.53;;;;;;;2.36;87.23;98448.09;250139;1155;22988;-79
2021/01/04 18:24:47;;;;;;;84.53;41.13;;;;;;;2.39;86.93;98444.95;250009;1147;22888;-78
2021/01/04 18:29:49;;;;;;;86.43;38.57;;;;;;;2.40;87.34;98455.28;250337;1147;23068;-79
2021/01/04 18:34:52;;;;;;;82.70;38.60;;;;;;;2.36;86.70;98463.95;250499;1147;22899;-80
2021/01/04 18:39:54;;;;;;;79.67;36.17;;;;;;;2.31;87.36;98458.58;250241;1153;23008;-77
2021/01/04 18:44:56;;;;;;;66.60;31.17;;;;;;;2.33;87.09;98461.80;250226;1148;23116;-78
2021/01/04 18:49:58;;;;;;;69.50;31.83;;;;;;;2.33;86.98;98469.73;250226;1150;22981;-76
2021/01/04 18:55:00;;;;;;;59.97;26.30;;;;;;;2.28;87.23;98456.42;249946;1148;22966;-77
2021/01/04 19:00:06;;;;;;;89.27;34.83;;;;;;;2.32;87.02;98452.27;250210;1150;23106;-79
2021/01/04 19:05:12;;;;;;;78.37;33.63;;;;;;;2.31;87.74;98442.72;250289;1148;23011;-78
2021/01/04 19:10:14;;;;;;;76.33;34.43;;;;;;;2.34;87.16;98439.62;250541;1147;22926;-77
2021/01/04 19:15:16;;;;;;;90.73;37.20;;;;;;;2.35;87.46;98435.91;250121;1147;22957;-80
2021/01/04 19:20:20;;;;;;;118.90;42.45;;;;;;;2.37;87.90;98433.84;250215;1152;23071;-79
2021/01/04 19:25:22;;;;;;;112.23;42.27;;;;;;;2.39;87.47;98429.91;250089;1148;22951;-78
2021/01/04 19:30:24;;;;;;;93.60;38.23;;;;;;;2.45;87.68;98425.50;250414;1152;22926;-78
2021/01/04 19:35:26;;;;;;;92.60;35.65;;;;;;;2.43;87.53;98424.13;250074;1147;22946;-78
2021/01/04 19:40:28;;;;;;;69.05;29.45;;;;;;;2.45;87.62;98420.20;250199;1148;22967;-79
2021/01/04 19:45:31;;;;;;;79.10;32.40;;;;;;;2.46;87.67;98418.35;250418;1148;23054;-76
2021/01/04 19:50:33;;;;;;;94.05;38.30;;;;;;;2.49;87.23;98416.03;250442;1152;22922;-78
2021/01/04 19:55:35;;;;;;;74.97;32.90;;;;;;;2.55;87.53;98414.25;250510;1148;22985;-78
2021/01/04 20:00:40;;;;;;;103.27;39.97;;;;;;;2.57;87.89;98414.80;250351;1148;22967;-76
2021/01/04 20:05:42;;;;;;;100.17;41.80;;;;;;;2.62;87.24;98419.38;250341;1148;22942;-78
2021/01/04 20:10:44;;;;;;;108.70;43.20;;;;;;;2.67;87.45;98411.48;250148;1148;22991;-80
2021/01/04 20:15:50;;;;;;;107.20;45.40;;;;;;;2.68;87.43;98407.80;250353;1147;22942;-79
2021/01/04 20:20:52;;;;;;;98.43;40.83;;;;;;;2.70;87.36;98410.98;250129;1148;22936;-78
2021/01/04 20:25:55;;;;;;;100.93;38.23;;;;;;;2.75;87.65;98397.83;250472;1152;22943;-79
2021/01/04 20:30:57;;;;;;;87.57;36.87;;;;;;;2.80;87.18;98402.38;250466;1148;22967;-78
2021/01/04 20:35:59;;;;;;;69.20;30.93;;;;;;;2.82;87.52;98398.45;250233;1154;23378;-80
2021/01/04 20:41:01;;;;;;;94.93;37.13;;;;;;;2.80;87.44;98403.20;250316;1148;22876;-79
2021/01/04 20:46:04;;;;;;;76.83;32.87;;;;;;;2.78;87.69;98399.19;250085;1148;22932;-77
2021/01/04 20:51:09;;;;;;;62.43;27.23;;;;;;;2.81;87.28;98399.52;250240;1148;22941;-78
2021/01/04 20:56:11;;;;;;;72.50;32.63;;;;;;;2.79;87.72;98403.45;250130;1148;22969;-78
2021/01/04 21:01:15;;;;;;;60.40;27.20;;;;;;;2.77;87.34;98402.88;250008;1148;22926;-77
2021/01/04 21:06:17;;;;;;;68.07;28.73;;;;;;;2.71;87.51;98399.38;249985;1148;23440;-78
2021/01/04 21:11:21;;;;;;;69.43;29.13;;;;;;;2.71;87.54;98399.38;250366;1149;22922;-77
2021/01/04 21:16:23;;;;;;;67.67;29.43;;;;;;;2.73;87.69;98400.73;250136;1150;22946;-78
2021/01/04 21:21:25;;;;;;;63.50;29.17;;;;;;;2.77;87.72;98389.65;250279;1148;23023;-80
2021/01/04 21:26:29;;;;;;;63.87;27.53;;;;;;;2.76;87.69;98380.92;250269;1148;22946;-80
2021/01/04 21:31:34;;;;;;;69.80;28.90;;;;;;;2.71;87.87;98380.86;250227;1148;22949;-78
2021/01/04 21:36:37;;;;;;;70.87;27.93;;;;;;;2.70;87.48;98366.02;250345;1147;23212;-80
2021/01/04 21:41:42;;;;;;;53.47;21.80;;;;;;;2.73;87.98;98373.49;250200;1148;23154;-78
2021/01/04 21:46:45;;;;;;;60.10;25.80;;;;;;;2.76;87.87;98372.17;250356;1148;26462;-77
2021/01/04 21:51:48;;;;;;;63.60;27.67;;;;;;;2.76;87.76;98370.34;250217;1148;22967;-78
2021/01/04 21:56:53;;;;;;;62.13;26.93;;;;;;;2.79;88.37;98369.05;250509;1148;22953;-80
2021/01/04 22:02:04;;;;;;;62.80;25.77;;;;;;;2.82;88.03;98361.41;250560;1148;22971;-80
2021/01/04 22:07:07;;;;;;;58.00;26.17;;;;;;;2.81;87.46;98359.02;250216;1148;23080;-80
2021/01/04 22:12:10;;;;;;;56.60;25.30;;;;;;;2.77;87.96;98361.38;250433;1148;22998;-79
2021/01/04 22:17:13;;;;;;;56.40;24.50;;;;;;;2.75;87.78;98360.80;250496;1152;22939;-79
2021/01/04 22:22:15;;;;;;;55.05;24.35;;;;;;;2.77;88.12;98361.38;250370;1148;23042;-78
2021/01/04 22:27:17;;;;;;;63.00;28.00;;;;;;;2.80;87.90;98344.18;250340;1150;22926;-79
2021/01/04 22:32:19;;;;;;;53.83;23.47;;;;;;;2.78;88.21;98343.64;250335;1149;22929;-78
2021/01/04 22:37:21;;;;;;;48.97;22.73;;;;;;;2.73;87.74;98347.83;250146;1152;22772;-78
2021/01/04 22:42:23;;;;;;;43.87;19.77;;;;;;;2.72;87.99;98350.72;250224;1152;22940;-80
2021/01/04 22:47:25;;;;;;;46.67;21.40;;;;;;;2.71;87.63;98343.83;250286;1146;22994;-78
2021/01/04 22:52:28;;;;;;;50.33;23.90;;;;;;;2.72;88.03;98348.87;249991;1147;22942;-76
2021/01/04 22:57:30;;;;;;;44.13;21.97;;;;;;;2.74;88.24;98336.20;250078;1153;22950;-78
2021/01/04 23:02:34;;;;;;;54.27;23.97;;;;;;;2.74;88.34;98335.39;250096;1148;22953;-79
2021/01/04 23:07:36;;;;;;;59.00;26.05;;;;;;;2.73;87.86;98329.31;250023;1148;27375;-78
2021/01/04 23:12:39;;;;;;;49.97;23.00;;;;;;;2.77;88.32;98326.16;250169;1148;22944;-78
2021/01/04 23:17:41;;;;;;;53.30;24.00;;;;;;;2.81;88.04;98333.38;250177;1148;22935;-78
2021/01/04 23:22:44;;;;;;;48.20;23.20;;;;;;;2.79;87.59;98318.80;250112;1148;23058;-78
2021/01/04 23:27:46;;;;;;;51.70;23.20;;;;;;;2.68;87.85;98316.02;250128;1147;24542;-79
2021/01/04 23:32:49;;;;;;;43.07;19.73;;;;;;;2.62;87.80;98310.95;250185;1148;22932;-78